Time;durP1;ratioP1;P1;durP2;ratioP2;P2;SDS_P1;SDS_P2;PMS_P1;PMS_P2;Temp;Humidity;BMP_temperature;BMP_pressure;BME280_temperature;BME280_humidity;BME280_pressure;Samples;Min_cycle;Max_cycle;Signal;HPM_P1;HPM_P2
2022/06/06 00:00:50;;;;;;;10.77;7.45;;;;;;;;;;5024247;28;20050;-57
2022/06/06 00:03:18;;;;;;;9.00;6.70;;;;;;;;;;5024858;28;20049;-58
2022/06/06 00:05:47;;;;;;;8.05;5.93;;;;;;;;;;5024398;28;20042;-58
2022/06/06 00:08:13;;;;;;;;;;;;;;;;;;5024648;28;20045;-58
2022/06/06 00:10:40;;;;;;;6.05;4.93;;;;;;;;;;5023494;28;19928;-58
2022/06/06 00:13:07;;;;;;;7.50;5.15;;;;;;;;;;5015634;28;20883;-57
2022/06/06 00:15:34;;;;;;;7.55;5.03;;;;;;;;;;5023585;28;20052;-58
2022/06/06 00:18:00;;;;;;;6.40;4.53;;;;;;;;;;5024120;28;20056;-58
2022/06/06 00:20:27;;;;;;;7.78;5.25;;;;;;;;;;5022043;28;20530;-58
2022/06/06 00:22:53;;;;;;;6.95;5.18;;;;;;;;;;5023907;28;20057;-58
2022/06/06 00:25:19;;;;;;;9.00;5.53;;;;;;;;;;5023329;28;20050;-58
2022/06/06 00:27:45;;;;;;;7.43;5.35;;;;;;;;;;5023906;28;20130;-58
2022/06/06 00:30:12;;;;;;;8.20;5.47;;;;;;;;;;5023406;28;20037;-58
2022/06/06 00:35:23;;;;;;;9.88;6.05;;;;;;;;;;5022734;28;20074;-58
2022/06/06 00:37:49;;;;;;;12.48;5.95;;;;;;;;;;5024069;28;20084;-57
2022/06/06 00:40:17;;;;;;;10.05;6.63;;;;;;;;;;5024071;28;20045;-58
2022/06/06 00:42:43;;;;;;;9.75;6.20;;;;;;;;;;5023601;28;20034;-58
2022/06/06 00:45:15;;;;;;;10.32;6.13;;;;;;;;;;5023677;28;20037;-58
2022/06/06 00:47:42;;;;;;;9.35;5.88;;;;;;;;;;5022032;28;20084;-58
2022/06/06 00:50:16;;;;;;;8.32;5.10;;;;;;;;;;5023627;28;20095;-58
2022/06/06 00:52:43;;;;;;;11.30;5.93;;;;;;;;;;5024141;28;20053;-58
2022/06/06 00:55:12;;;;;;;9.02;4.90;;;;;;;;;;5023797;28;20171;-58
2022/06/06 00:57:45;;;;;;;6.93;4.35;;;;;;;;;;5022455;28;20053;-58
2022/06/06 01:00:13;;;;;;;6.93;4.63;;;;;;;;;;5022956;28;20111;-57
2022/06/06 01:02:40;;;;;;;6.53;4.30;;;;;;;;;;5023113;28;20488;-58
2022/06/06 01:05:06;;;;;;;6.15;4.05;;;;;;;;;;5032566;22;20081;-58
2022/06/06 01:07:33;;;;;;;6.40;4.05;;;;;;;;;;5023108;28;20052;-58
2022/06/06 01:09:59;;;;;;;7.68;4.05;;;;;;;;;;5023700;28;20049;-58
2022/06/06 01:12:26;;;;;;;5.20;3.63;;;;;;;;;;5023095;28;20038;-58
2022/06/06 01:14:55;;;;;;;9.23;4.00;;;;;;;;;;5023545;28;20048;-58
2022/06/06 01:17:27;;;;;;;5.18;3.50;;;;;;;;;;5005954;28;20042;-58
2022/06/06 01:19:59;;;;;;;7.65;3.80;;;;;;;;;;5026520;28;20045;-58
2022/06/06 01:22:26;;;;;;;4.93;3.63;;;;;;;;;;5027438;28;20048;-58
2022/06/06 01:24:56;;;;;;;7.00;3.97;;;;;;;;;;5027202;28;20072;-58
2022/06/06 01:27:33;;;;;;;5.50;3.95;;;;;;;;;;5026569;28;20044;-57
2022/06/06 01:30:01;;;;;;;9.80;4.38;;;;;;;;;;5027692;28;20083;-58
2022/06/06 01:32:28;;;;;;;6.07;4.20;;;;;;;;;;5026977;28;20037;-58
2022/06/06 01:34:55;;;;;;;6.00;4.18;;;;;;;;;;5027360;28;20080;-58
2022/06/06 01:37:24;;;;;;;14.27;4.22;;;;;;;;;;5026222;28;20138;-58
2022/06/06 01:39:50;;;;;;;6.95;4.45;;;;;;;;;;5026952;28;20142;-57
2022/06/06 01:42:23;;;;;;;6.13;4.25;;;;;;;;;;5026885;28;20403;-57
2022/06/06 01:44:51;;;;;;;7.25;4.70;;;;;;;;;;5027074;28;20092;-57
2022/06/06 01:47:20;;;;;;;11.23;5.18;;;;;;;;;;5027401;28;20041;-56
2022/06/06 01:49:46;;;;;;;6.72;4.90;;;;;;;;;;5026614;28;20050;-58
2022/06/06 01:52:14;;;;;;;9.57;5.38;;;;;;;;;;5027388;28;20449;-58
2022/06/06 01:54:40;;;;;;;7.40;5.50;;;;;;;;;;5026608;28;20045;-57
2022/06/06 01:57:08;;;;;;;7.80;5.93;;;;;;;;;;5025976;28;20284;-58
2022/06/06 01:59:34;;;;;;;9.60;5.63;;;;;;;;;;5026429;28;20072;-58
2022/06/06 02:02:00;;;;;;;8.40;5.82;;;;;;;;;;5026715;28;20045;-58
2022/06/06 02:04:26;;;;;;;9.68;6.10;;;;;;;;;;5026212;28;20042;-58
2022/06/06 02:06:53;;;;;;;12.10;6.13;;;;;;;;;;5026442;28;20049;-58
2022/06/06 02:09:19;;;;;;;8.88;5.80;;;;;;;;;;5026278;28;20095;-58
2022/06/06 02:11:45;;;;;;;7.95;6.15;;;;;;;;;;5026437;28;20041;-58
2022/06/06 02:14:12;;;;;;;10.15;7.07;;;;;;;;;;5026626;28;20045;-58
2022/06/06 02:16:38;;;;;;;9.85;6.45;;;;;;;;;;5026150;28;20045;-58
2022/06/06 02:19:05;;;;;;;12.23;6.70;;;;;;;;;;5026162;28;20033;-58
2022/06/06 02:21:32;;;;;;;12.32;7.05;;;;;;;;;;5008630;28;20606;-58
2022/06/06 02:23:59;;;;;;;9.30;6.88;;;;;;;;;;5026391;28;20073;-58
2022/06/06 02:26:25;;;;;;;9.93;6.07;;;;;;;;;;5025433;28;20394;-58
2022/06/06 02:28:51;;;;;;;9.18;6.10;;;;;;;;;;5026124;28;20039;-57
2022/06/06 02:31:17;;;;;;;8.93;6.35;;;;;;;;;;5025506;28;20136;-57
2022/06/06 02:33:44;;;;;;;7.78;5.43;;;;;;;;;;5026213;28;20536;-58
2022/06/06 02:36:11;;;;;;;9.75;5.53;;;;;;;;;;5025934;28;20041;-58
2022/06/06 02:38:37;;;;;;;9.93;6.07;;;;;;;;;;5007523;28;20307;-58
2022/06/06 02:41:09;;;;;;;8.88;5.55;;;;;;;;;;5026285;28;20090;-58
2022/06/06 02:43:39;;;;;;;8.63;5.32;;;;;;;;;;5025453;28;20053;-58
2022/06/06 02:46:06;;;;;;;9.98;5.38;;;;;;;;;;5025872;28;20076;-58
2022/06/06 02:48:32;;;;;;;9.23;5.65;;;;;;;;;;5007943;28;20042;-58
2022/06/06 02:50:59;;;;;;;8.27;4.93;;;;;;;;;;5025609;28;20783;-58
2022/06/06 02:53:25;;;;;;;8.05;4.88;;;;;;;;;;5025765;28;20124;-58
2022/06/06 02:55:52;;;;;;;11.32;5.30;;;;;;;;;;5025731;28;20045;-57
2022/06/06 02:58:20;;;;;;;7.10;4.65;;;;;;;;;;5024518;28;20124;-58
2022/06/06 03:00:46;;;;;;;;;;;;;;;;;;5026320;28;20128;-58
2022/06/06 03:03:12;;;;;;;7.38;4.97;;;;;;;;;;5025901;28;20028;-57
2022/06/06 03:05:45;;;;;;;8.07;5.68;;;;;;;;;;5025074;28;20092;-58
2022/06/06 03:08:18;;;;;;;7.60;5.68;;;;;;;;;;5025788;28;20045;-58
2022/06/06 03:10:58;;;;;;;8.40;6.03;;;;;;;;;;5025247;28;20655;-58
2022/06/06 03:13:33;;;;;;;11.93;7.18;;;;;;;;;;5024372;28;20144;-58
2022/06/06 03:21:47;;;;;;;23.70;11.00;;;;;;;;;;5025510;28;20088;-58
2022/06/06 03:24:15;;;;;;;26.77;12.45;;;;;;;;;;5024724;28;20045;-59
2022/06/06 03:26:57;;;;;;;22.50;12.02;;;;;;;;;;5024248;28;20050;-58
2022/06/06 03:29:38;;;;;;;24.05;12.00;;;;;;;;;;5024792;28;20037;-58
2022/06/06 03:32:15;;;;;;;23.42;12.70;;;;;;;;;;5024345;28;20041;-58
2022/06/06 03:34:42;;;;;;;24.92;11.00;;;;;;;;;;5024659;28;20041;-58
2022/06/06 03:37:15;;;;;;;22.92;11.65;;;;;;;;;;5025049;28;20041;-58
2022/06/06 03:39:53;;;;;;;25.52;12.57;;;;;;;;;;5024661;28;20049;-57
2022/06/06 03:42:19;;;;;;;16.92;9.10;;;;;;;;;;5005058;28;20033;-58
2022/06/06 03:44:53;;;;;;;16.05;8.52;;;;;;;;;;5024930;28;20141;-57
2022/06/06 03:47:26;;;;;;;13.40;6.88;;;;;;;;;;5024490;28;20050;-57
2022/06/06 03:50:01;;;;;;;14.75;7.45;;;;;;;;;;5024775;28;20045;-58
2022/06/06 03:52:36;;;;;;;14.23;7.35;;;;;;;;;;5023832;28;20048;-58
2022/06/06 03:55:05;;;;;;;14.85;6.68;;;;;;;;;;5024679;28;20045;-58
2022/06/06 03:57:33;;;;;;;13.13;6.32;;;;;;;;;;5023416;28;20037;-58
2022/06/06 04:00:00;;;;;;;14.63;6.13;;;;;;;;;;5007082;28;20087;-57
2022/06/06 04:02:31;;;;;;;12.27;5.78;;;;;;;;;;5023933;28;20045;-58
2022/06/06 04:05:01;;;;;;;11.40;6.05;;;;;;;;;;5024196;28;20084;-57
2022/06/06 04:07:27;;;;;;;9.40;5.57;;;;;;;;;;5024065;28;20506;-58
2022/06/06 04:09:53;;;;;;;12.75;6.43;;;;;;;;;;5024175;28;20570;-57
2022/06/06 04:12:27;;;;;;;12.02;6.50;;;;;;;;;;5023661;28;20042;-58
2022/06/06 04:14:53;;;;;;;13.40;6.25;;;;;;;;;;5023568;28;20045;-58
2022/06/06 04:17:30;;;;;;;12.88;6.85;;;;;;;;;;5024051;28;20180;-58
2022/06/06 04:19:57;;;;;;;16.70;7.63;;;;;;;;;;5024041;28;20042;-57
2022/06/06 04:22:23;;;;;;;17.88;8.20;;;;;;;;;;5024168;28;20124;-58
2022/06/06 04:24:57;;;;;;;15.60;8.10;;;;;;;;;;5024283;28;20049;-58
2022/06/06 04:27:42;;;;;;;17.55;9.10;;;;;;;;;;5022744;28;20127;-58
2022/06/06 04:30:15;;;;;;;17.33;8.95;;;;;;;;;;5022948;28;20041;-58
2022/06/06 04:32:57;;;;;;;14.05;9.02;;;;;;;;;;5023972;28;20486;-58
2022/06/06 04:35:39;;;;;;;18.80;8.82;;;;;;;;;;5023639;28;20073;-57
2022/06/06 04:38:09;;;;;;;14.35;9.10;;;;;;;;;;5024450;28;20120;-58
2022/06/06 04:40:36;;;;;;;13.93;7.72;;;;;;;;;;5023413;28;20462;-57
2022/06/06 04:43:05;;;;;;;16.25;8.25;;;;;;;;;;5022618;28;20064;-58
2022/06/06 04:45:34;;;;;;;17.08;8.63;;;;;;;;;;5023261;28;20073;-58
2022/06/06 04:48:00;;;;;;;21.80;9.05;;;;;;;;;;5023514;28;20483;-58
2022/06/06 04:50:26;;;;;;;20.42;10.35;;;;;;;;;;5023630;28;20446;-58
2022/06/06 04:52:54;;;;;;;22.75;11.75;;;;;;;;;;5025089;28;20072;-57
2022/06/06 04:55:21;;;;;;;24.85;11.60;;;;;;;;;;5027383;28;20041;-57
2022/06/06 04:57:49;;;;;;;22.15;10.93;;;;;;;;;;5026343;28;20128;-58
2022/06/06 05:00:15;;;;;;;24.80;10.50;;;;;;;;;;5028314;28;20049;-58
2022/06/06 05:02:42;;;;;;;22.83;10.32;;;;;;;;;;5027620;28;20044;-58
2022/06/06 05:05:09;;;;;;;29.52;11.10;;;;;;;;;;5027469;28;20088;-58
2022/06/06 05:07:36;;;;;;;19.30;9.95;;;;;;;;;;5027549;28;20050;-58
2022/06/06 05:10:21;;;;;;;22.00;10.02;;;;;;;;;;5009314;28;20180;-58
2022/06/06 05:12:58;;;;;;;23.70;9.50;;;;;;;;;;5026814;28;20084;-57
2022/06/06 05:15:39;;;;;;;21.30;9.07;;;;;;;;;;5027402;28;20124;-58
2022/06/06 05:18:05;;;;;;;20.13;8.75;;;;;;;;;;5027600;28;20479;-58
2022/06/06 05:20:49;;;;;;;21.17;8.65;;;;;;;;;;5026807;28;20037;-57
2022/06/06 05:23:21;;;;;;;18.65;8.98;;;;;;;;;;5027894;28;20048;-58
2022/06/06 05:25:48;;;;;;;19.23;8.68;;;;;;;;;;5026204;28;20056;-57
2022/06/06 05:28:24;;;;;;;17.38;8.60;;;;;;;;;;5027662;28;20076;-58
2022/06/06 05:30:56;;;;;;;18.50;8.18;;;;;;;;;;5026866;28;20557;-58
2022/06/06 05:33:26;;;;;;;14.25;7.28;;;;;;;;;;5026949;28;20490;-58
2022/06/06 05:36:12;;;;;;;14.50;7.40;;;;;;;;;;5027222;28;20076;-57
2022/06/06 05:38:52;;;;;;;15.63;7.57;;;;;;;;;;5026647;28;20083;-57
2022/06/06 05:41:39;;;;;;;18.67;8.27;;;;;;;;;;5025887;28;20160;-57
2022/06/06 05:44:10;;;;;;;16.30;7.75;;;;;;;;;;5027001;28;20048;-57
2022/06/06 05:46:37;;;;;;;13.25;6.57;;;;;;;;;;5026770;28;20664;-58
2022/06/06 05:49:04;;;;;;;15.45;6.50;;;;;;;;;;5026740;28;20052;-57
2022/06/06 05:51:35;;;;;;;14.32;6.40;;;;;;;;;;5026458;28;20048;-57
2022/06/06 05:54:09;;;;;;;13.40;6.75;;;;;;;;;;5026555;28;20046;-57
2022/06/06 05:56:51;;;;;;;14.65;6.50;;;;;;;;;;5026090;28;20116;-58
2022/06/06 05:59:18;;;;;;;13.85;5.97;;;;;;;;;;5026346;28;20084;-58
2022/06/06 06:01:45;;;;;;;13.95;6.93;;;;;;;;;;5026878;28;20044;-58
2022/06/06 06:04:25;;;;;;;13.02;7.28;;;;;;;;;;5025633;28;20483;-58
2022/06/06 06:06:59;;;;;;;14.05;6.60;;;;;;;;;;5024438;28;20092;-57
2022/06/06 06:09:28;;;;;;;14.32;6.43;;;;;;;;;;5026603;28;20041;-58
2022/06/06 06:11:57;;;;;;;14.27;6.60;;;;;;;;;;5025916;28;20048;-58
2022/06/06 06:14:24;;;;;;;12.10;6.30;;;;;;;;;;5026915;28;20053;-57
2022/06/06 06:16:53;;;;;;;13.70;6.18;;;;;;;;;;5030152;28;20563;-58
2022/06/06 06:19:21;;;;;;;12.98;6.32;;;;;;;;;;5026890;28;20053;-58
2022/06/06 06:21:51;;;;;;;12.40;6.00;;;;;;;;;;5027494;28;20045;-58
2022/06/06 06:24:19;;;;;;;14.63;7.47;;;;;;;;;;5026260;28;20040;-57
2022/06/06 06:26:46;;;;;;;17.67;7.65;;;;;;;;;;5026313;28;20099;-58
2022/06/06 06:29:13;;;;;;;18.95;8.30;;;;;;;;;;5027402;28;20038;-58
2022/06/06 06:32:08;;;;;;;19.80;9.07;;;;;;;;;;5025588;28;20049;-58
2022/06/06 06:34:41;;;;;;;19.05;8.35;;;;;;;;;;5026508;28;20053;-58
2022/06/06 06:37:25;;;;;;;19.75;8.55;;;;;;;;;;5026855;28;20053;-58
2022/06/06 06:39:52;;;;;;;21.38;8.82;;;;;;;;;;5020012;28;20049;-58
2022/06/06 06:42:24;;;;;;;20.98;8.82;;;;;;;;;;5025879;28;20132;-58
2022/06/06 06:45:00;;;;;;;17.70;7.47;;;;;;;;;;5012728;28;20081;-58
2022/06/06 06:47:30;;;;;;;18.77;7.70;;;;;;;;;;5005292;28;20455;-58
2022/06/06 06:50:02;;;;;;;15.65;6.53;;;;;;;;;;5024862;28;20423;-58
2022/06/06 06:52:35;;;;;;;15.30;5.80;;;;;;;;;;5025117;28;20041;-58
2022/06/06 06:55:08;;;;;;;15.38;5.88;;;;;;;;;;5025973;28;20056;-58
2022/06/06 06:57:51;;;;;;;10.20;4.70;;;;;;;;;;5026029;28;20060;-58
2022/06/06 07:00:20;;;;;;;10.20;4.70;;;;;;;;;;5025476;28;20091;-58
2022/06/06 07:08:37;;;;;;;13.48;5.22;;;;;;;;;;5023998;28;20299;-58
2022/06/06 07:11:10;;;;;;;12.15;5.40;;;;;;;;;;5024801;28;21499;-58
2022/06/06 07:14:12;;;;;;;10.88;4.97;;;;;;;;;;5025230;28;20041;-59
2022/06/06 07:16:39;;;;;;;13.55;5.28;;;;;;;;;;5019946;28;20175;-58
2022/06/06 07:19:08;;;;;;;10.87;5.10;;;;;;;;;;5026309;28;20558;-58
2022/06/06 07:21:35;;;;;;;9.90;4.43;;;;;;;;;;5025779;28;20163;-58
2022/06/06 07:24:05;;;;;;;8.82;4.15;;;;;;;;;;5025940;28;20075;-58
2022/06/06 07:26:34;;;;;;;8.30;3.63;;;;;;;;;;5025080;28;20048;-58
2022/06/06 07:29:00;;;;;;;7.65;4.00;;;;;;;;;;5026079;28;20549;-58
2022/06/06 07:31:31;;;;;;;7.07;3.50;;;;;;;;;;5022792;28;20073;-58
2022/06/06 07:33:58;;;;;;;8.50;3.60;;;;;;;;;;5025559;28;20038;-59
2022/06/06 07:36:29;;;;;;;13.30;3.78;;;;;;;;;;5025382;28;20045;-59
2022/06/06 07:39:03;;;;;;;9.77;4.35;;;;;;;;;;5025235;28;20053;-58
2022/06/06 07:41:44;;;;;;;12.00;4.38;;;;;;;;;;5015123;28;20042;-58
2022/06/06 07:44:10;;;;;;;11.73;4.70;;;;;;;;;;5024640;28;20057;-58
2022/06/06 07:46:53;;;;;;;8.77;4.30;;;;;;;;;;5025635;28;20616;-58
2022/06/06 07:49:35;;;;;;;8.23;3.80;;;;;;;;;;5025241;28;20518;-59
2022/06/06 07:52:06;;;;;;;10.40;4.93;;;;;;;;;;5025514;28;20167;-58
2022/06/06 07:54:32;;;;;;;11.57;4.68;;;;;;;;;;5024997;28;20037;-58
2022/06/06 07:57:05;;;;;;;12.85;4.80;;;;;;;;;;5023511;28;20038;-58
2022/06/06 07:59:50;;;;;;;13.07;4.85;;;;;;;;;;5025131;28;20041;-58
2022/06/06 08:02:19;;;;;;;14.18;5.03;;;;;;;;;;5024944;28;20049;-58
2022/06/06 08:05:06;;;;;;;11.68;5.45;;;;;;;;;;5029197;28;20056;-58
2022/06/06 08:07:42;;;;;;;11.63;5.25;;;;;;;;;;5024426;28;20120;-58
2022/06/06 08:10:15;;;;;;;13.52;5.85;;;;;;;;;;5024492;28;20235;-58
2022/06/06 08:12:42;;;;;;;14.45;6.10;;;;;;;;;;5023229;28;20128;-58
2022/06/06 08:15:14;;;;;;;13.18;6.28;;;;;;;;;;5022932;28;20044;-58
2022/06/06 08:17:41;;;;;;;15.13;7.15;;;;;;;;;;5023146;28;20041;-58
2022/06/06 08:20:07;;;;;;;12.60;5.38;;;;;;;;;;5018043;28;20742;-58
2022/06/06 08:22:36;;;;;;;15.82;6.20;;;;;;;;;;5021234;28;20042;-58
2022/06/06 08:25:03;;;;;;;14.57;5.93;;;;;;;;;;5021027;28;20124;-58
2022/06/06 08:27:31;;;;;;;14.18;5.57;;;;;;;;;;5019777;28;20056;-58
2022/06/06 08:29:58;;;;;;;8.55;4.45;;;;;;;;;;5020529;28;20137;-58
2022/06/06 08:32:25;;;;;;;12.93;4.13;;;;;;;;;;5017850;28;20082;-59
2022/06/06 08:34:51;;;;;;;8.80;4.30;;;;;;;;;;5021836;28;20041;-58
2022/06/06 08:37:28;;;;;;;9.52;4.10;;;;;;;;;;5002855;28;20041;-58
2022/06/06 08:40:03;;;;;;;6.75;3.40;;;;;;;;;;5019779;28;20044;-59
2022/06/06 08:42:43;;;;;;;8.80;3.15;;;;;;;;;;5019847;28;20081;-59
2022/06/06 08:45:09;;;;;;;8.05;4.03;;;;;;;;;;5020869;28;20180;-57
2022/06/06 08:47:44;;;;;;;11.30;3.88;;;;;;;;;;5020387;28;20485;-59
2022/06/06 08:53:23;;;;;;;8.30;3.13;;;;;;;;;;5018678;28;20045;-59
2022/06/06 08:55:56;;;;;;;8.25;3.58;;;;;;;;;;5021578;28;20077;-59
2022/06/06 08:58:25;;;;;;;7.20;2.90;;;;;;;;;;5018479;28;20054;-58
2022/06/06 09:01:02;;;;;;;6.07;2.38;;;;;;;;;;5020676;28;20137;-58
2022/06/06 09:03:32;;;;;;;7.63;2.67;;;;;;;;;;5019222;28;20083;-58
2022/06/06 09:06:08;;;;;;;4.97;2.45;;;;;;;;;;5020058;28;20140;-59
2022/06/06 09:08:51;;;;;;;7.45;2.28;;;;;;;;;;5015683;28;20128;-59
2022/06/06 09:11:17;;;;;;;4.38;2.10;;;;;;;;;;5016889;28;20561;-59
2022/06/06 09:13:44;;;;;;;5.57;1.90;;;;;;;;;;5019563;28;20038;-59
2022/06/06 09:16:29;;;;;;;7.95;2.40;;;;;;;;;;5020079;28;20053;-59
2022/06/06 09:19:06;;;;;;;7.05;2.63;;;;;;;;;;5020128;28;20038;-59
2022/06/06 09:21:39;;;;;;;11.93;2.75;;;;;;;;;;5019568;28;20103;-59
2022/06/06 09:24:06;;;;;;;5.65;1.90;;;;;;;;;;5020148;28;20099;-59
2022/06/06 09:26:40;;;;;;;6.57;1.77;;;;;;;;;;5022067;28;20502;-59
2022/06/06 09:29:08;;;;;;;5.13;2.67;;;;;;;;;;5023539;28;20056;-58
2022/06/06 09:32:04;;;;;;;6.78;2.33;;;;;;;;;;5022648;28;20099;-59
2022/06/06 09:34:54;;;;;;;9.85;2.53;;;;;;;;;;5020993;28;20149;-59
2022/06/06 09:37:32;;;;;;;6.75;2.10;;;;;;;;;;5022671;28;20053;-59
2022/06/06 09:40:17;;;;;;;7.97;2.67;;;;;;;;;;5024350;28;20046;-59
2022/06/06 09:42:55;;;;;;;4.43;2.28;;;;;;;;;;5022274;28;20143;-59
2022/06/06 09:45:22;;;;;;;5.68;2.58;;;;;;;;;;5026419;28;20120;-58
2022/06/06 09:48:03;;;;;;;6.82;2.72;;;;;;;;;;5024061;28;20045;-59
2022/06/06 09:50:29;;;;;;;6.93;3.38;;;;;;;;;;5026654;28;20494;-59
2022/06/06 09:53:16;;;;;;;6.82;2.63;;;;;;;;;;5027121;28;20045;-59
2022/06/06 10:01:31;;;;;;;6.55;2.55;;;;;;;;;;5025541;28;20487;-59
2022/06/06 10:04:09;;;;;;;8.93;2.85;;;;;;;;;;5026284;28;20068;-58
2022/06/06 10:06:38;;;;;;;4.55;2.85;;;;;;;;;;5024886;28;20470;-58
2022/06/06 10:09:08;;;;;;;5.05;2.40;;;;;;;;;;5025610;28;20058;-59
2022/06/06 10:11:34;;;;;;;5.53;2.55;;;;;;;;;;5025431;28;20057;-59
2022/06/06 10:14:07;;;;;;;7.80;2.45;;;;;;;;;;5026527;28;20045;-59
2022/06/06 10:16:34;;;;;;;6.72;2.38;;;;;;;;;;5026368;28;20042;-59
2022/06/06 10:19:06;;;;;;;5.70;1.80;;;;;;;;;;5026781;28;20394;-59
2022/06/06 10:21:39;;;;;;;4.07;1.60;;;;;;;;;;5024832;28;20481;-59
2022/06/06 10:24:18;;;;;;;5.53;1.70;;;;;;;;;;5026575;28;20130;-59
2022/06/06 10:26:49;;;;;;;7.40;1.70;;;;;;;;;;5026065;28;20061;-59
2022/06/06 10:29:22;;;;;;;3.75;1.85;;;;;;;;;;5026555;28;20479;-59
2022/06/06 10:31:58;;;;;;;7.60;3.28;;;;;;;;;;5026251;28;20052;-60
2022/06/06 10:34:41;;;;;;;8.48;3.38;;;;;;;;;;5026292;28;20051;-59
2022/06/06 10:37:17;;;;;;;9.45;4.53;;;;;;;;;;5026080;28;20163;-58
2022/06/06 10:40:05;;;;;;;6.65;3.25;;;;;;;;;;5026660;28;20475;-59
2022/06/06 10:42:32;;;;;;;;;;;;;;;;;;5026492;28;20119;-59
2022/06/06 10:44:58;;;;;;;5.68;1.92;;;;;;;;;;5025886;28;19976;-59
2022/06/06 10:47:24;;;;;;;5.20;1.98;;;;;;;;;;5025516;28;20049;-59
2022/06/06 10:50:08;;;;;;;3.03;2.10;;;;;;;;;;5026193;28;20072;-59
2022/06/06 10:52:41;;;;;;;4.10;2.10;;;;;;;;;;5025663;28;20487;-59
2022/06/06 10:55:09;;;;;;;6.95;2.35;;;;;;;;;;5024759;28;20119;-59
2022/06/06 10:57:49;;;;;;;5.18;2.78;;;;;;;;;;5025601;28;20081;-59
2022/06/06 11:00:22;;;;;;;3.72;2.15;;;;;;;;;;5026811;28;20491;-59
2022/06/06 11:02:57;;;;;;;4.82;1.83;;;;;;;;;;5026029;28;20132;-59
2022/06/06 11:05:29;;;;;;;4.78;1.55;;;;;;;;;;5024995;28;20522;-59
2022/06/06 11:08:12;;;;;;;3.15;1.50;;;;;;;;;;5025440;28;20049;-59
2022/06/06 11:10:53;;;;;;;7.03;1.75;;;;;;;;;;5024732;28;20037;-59
2022/06/06 11:13:38;;;;;;;3.33;2.65;;;;;;;;;;5025322;28;20117;-59
2022/06/06 11:16:14;;;;;;;6.68;2.20;;;;;;;;;;5025684;28;20045;-59
2022/06/06 11:18:50;;;;;;;6.70;2.85;;;;;;;;;;5025091;28;20537;-58
2022/06/06 11:21:36;;;;;;;8.18;2.65;;;;;;;;;;5025634;28;20048;-59
2022/06/06 11:24:12;;;;;;;7.20;2.53;;;;;;;;;;5025402;28;20139;-59
2022/06/06 11:26:57;;;;;;;10.25;2.67;;;;;;;;;;5023860;28;20064;-59
2022/06/06 11:29:23;;;;;;;6.50;2.00;;;;;;;;;;5024823;28;20177;-59
2022/06/06 11:31:54;;;;;;;4.78;2.20;;;;;;;;;;5024726;28;20566;-59
2022/06/06 11:34:30;;;;;;;3.72;1.85;;;;;;;;;;5025223;28;20048;-59
2022/06/06 11:37:03;;;;;;;3.70;2.17;;;;;;;;;;5025274;28;20053;-59
2022/06/06 11:39:43;;;;;;;6.20;1.70;;;;;;;;;;5024988;28;20046;-59
2022/06/06 11:42:39;;;;;;;5.20;2.53;;;;;;;;;;5025005;28;20715;-59
2022/06/06 11:45:18;;;;;;;4.70;2.45;;;;;;;;;;5024930;28;20179;-59
2022/06/06 11:47:53;;;;;;;3.40;1.70;;;;;;;;;;5025103;28;20546;-59
2022/06/06 11:50:32;;;;;;;10.30;2.65;;;;;;;;;;5023799;28;20742;-59
2022/06/06 11:52:59;;;;;;;5.97;1.90;;;;;;;;;;5024652;28;20057;-59
2022/06/06 11:55:42;;;;;;;4.55;2.35;;;;;;;;;;5024008;28;20041;-58
2022/06/06 11:58:33;;;;;;;4.53;1.48;;;;;;;;;;5024099;28;20100;-59
2022/06/06 12:01:03;;;;;;;6.53;1.20;;;;;;;;;;5024523;28;20067;-60
2022/06/06 12:03:31;;;;;;;3.03;1.30;;;;;;;;;;5023722;28;20037;-60
2022/06/06 12:06:09;;;;;;;1.80;1.20;;;;;;;;;;5023846;28;20076;-60
2022/06/06 12:09:01;;;;;;;2.17;1.08;;;;;;;;;;5024356;28;20184;-60
2022/06/06 12:11:35;;;;;;;1.33;0.50;;;;;;;;;;5023220;28;20537;-60
2022/06/06 12:14:23;;;;;;;2.17;1.00;;;;;;;;;;5024585;28;20041;-60
2022/06/06 12:17:01;;;;;;;3.53;0.70;;;;;;;;;;5024219;28;20175;-60
2022/06/06 12:19:44;;;;;;;6.15;0.80;;;;;;;;;;5023509;28;20060;-60
2022/06/06 12:22:19;;;;;;;3.80;0.70;;;;;;;;;;5024445;28;20126;-60
2022/06/06 12:24:52;;;;;;;5.50;0.80;;;;;;;;;;5023787;28;20041;-60
2022/06/06 12:27:28;;;;;;;6.05;0.80;;;;;;;;;;5023489;28;20037;-60
2022/06/06 12:30:02;;;;;;;4.53;0.60;;;;;;;;;;5023979;28;20096;-59
2022/06/06 12:32:38;;;;;;;3.25;0.63;;;;;;;;;;5024089;28;20041;-59
2022/06/06 12:35:08;;;;;;;4.47;0.70;;;;;;;;;;5024666;28;20090;-60
2022/06/06 12:37:34;;;;;;;2.45;0.65;;;;;;;;;;5006119;28;20045;-59
2022/06/06 12:40:08;;;;;;;2.63;0.82;;;;;;;;;;5023662;28;20144;-60
2022/06/06 12:42:35;;;;;;;1.45;0.90;;;;;;;;;;5023700;28;20087;-60
2022/06/06 12:45:10;;;;;;;4.30;1.08;;;;;;;;;;5024197;28;20076;-60
2022/06/06 12:47:43;;;;;;;6.28;1.38;;;;;;;;;;5023245;28;21078;-60
2022/06/06 12:50:26;;;;;;;4.45;1.33;;;;;;;;;;5023860;28;20068;-60
2022/06/06 12:53:10;;;;;;;3.65;0.98;;;;;;;;;;5023692;28;20116;-59
2022/06/06 12:56:17;;;;;;;3.45;1.20;;;;;;;;;;5022997;28;20826;-60
2022/06/06 12:58:45;;;;;;;3.53;1.50;;;;;;;;;;5023522;28;20107;-60
2022/06/06 13:04:05;;;;;;;3.20;1.10;;;;;;;;;;5023888;28;20489;-60
2022/06/06 13:06:32;;;;;;;5.30;1.23;;;;;;;;;;5023310;28;20050;-60
2022/06/06 13:09:24;;;;;;;4.45;1.40;;;;;;;;;;5023123;28;20096;-60
2022/06/06 13:11:50;;;;;;;4.20;1.10;;;;;;;;;;5023302;28;20084;-60
2022/06/06 13:14:25;;;;;;;3.35;0.95;;;;;;;;;;5025896;28;20053;-60
2022/06/06 13:16:59;;;;;;;3.80;1.23;;;;;;;;;;5009648;28;20096;-60
2022/06/06 13:19:33;;;;;;;4.07;0.98;;;;;;;;;;5027389;28;20041;-60
2022/06/06 13:22:15;;;;;;;5.40;1.50;;;;;;;;;;5027462;28;20120;-60
2022/06/06 13:24:47;;;;;;;3.03;1.13;;;;;;;;;;5026235;28;20538;-60
2022/06/06 13:27:26;;;;;;;3.45;1.10;;;;;;;;;;5027103;28;20334;-60
2022/06/06 13:29:52;;;;;;;;;;;;;;;;;;5020122;28;20080;-58
2022/06/06 13:32:34;;;;;;;3.80;1.10;;;;;;;;;;5025476;28;20401;-60
2022/06/06 13:35:04;;;;;;;4.80;1.52;;;;;;;;;;5027187;28;20088;-59
2022/06/06 13:37:36;;;;;;;3.47;1.23;;;;;;;;;;5027146;28;20037;-59
2022/06/06 13:40:02;;;;;;;6.22;1.58;;;;;;;;;;5026653;28;20045;-58
2022/06/06 13:42:48;;;;;;;4.28;1.55;;;;;;;;;;5027145;28;20398;-59
2022/06/06 13:45:17;;;;;;;6.20;2.40;;;;;;;;;;5027831;28;20073;-58
2022/06/06 13:47:59;;;;;;;7.43;2.33;;;;;;;;;;5027483;28;20127;-58
2022/06/06 13:50:31;;;;;;;4.32;2.42;;;;;;;;;;5027030;28;20539;-58
2022/06/06 13:52:59;;;;;;;4.20;2.58;;;;;;;;;;5027201;28;20045;-59
2022/06/06 13:55:30;;;;;;;5.60;2.88;;;;;;;;;;5025935;28;20068;-59
2022/06/06 13:58:06;;;;;;;4.65;2.80;;;;;;;;;;5026992;28;20162;-59
2022/06/06 14:00:39;;;;;;;4.70;2.58;;;;;;;;;;5026744;28;20495;-59
2022/06/06 14:03:13;;;;;;;3.65;2.53;;;;;;;;;;5025610;28;20045;-59
2022/06/06 14:05:45;;;;;;;6.43;2.42;;;;;;;;;;5024018;28;20495;-59
2022/06/06 14:08:12;;;;;;;6.75;3.00;;;;;;;;;;5025914;28;20037;-59
2022/06/06 14:10:42;;;;;;;8.40;3.30;;;;;;;;;;5025460;28;20041;-59
2022/06/06 14:13:22;;;;;;;4.85;3.00;;;;;;;;;;5020285;28;20083;-59
2022/06/06 14:15:48;;;;;;;6.90;3.42;;;;;;;;;;5019751;28;20073;-60
2022/06/06 14:18:19;;;;;;;13.00;3.22;;;;;;;;;;5022796;28;20037;-59
2022/06/06 14:20:48;;;;;;;12.80;3.67;;;;;;;;;;5022513;28;20045;-59
2022/06/06 14:23:19;;;;;;;9.93;3.65;;;;;;;;;;5022055;28;20049;-59
2022/06/06 14:25:47;;;;;;;12.95;3.47;;;;;;;;;;5021411;28;20045;-59
2022/06/06 14:28:19;;;;;;;7.53;3.70;;;;;;;;;;5025544;28;20073;-59
2022/06/06 14:30:45;;;;;;;11.88;3.97;;;;;;;;;;5022816;28;20067;-59
2022/06/06 14:33:21;;;;;;;5.82;3.88;;;;;;;;;;5022230;28;20045;-59
2022/06/06 14:35:47;;;;;;;10.55;4.10;;;;;;;;;;5027028;28;20088;-59
2022/06/06 14:38:20;;;;;;;7.90;3.92;;;;;;;;;;5023431;28;20068;-59
2022/06/06 14:40:59;;;;;;;8.20;4.40;;;;;;;;;;5027823;28;20048;-59
2022/06/06 14:43:27;;;;;;;11.40;4.53;;;;;;;;;;5025345;28;20041;-59
2022/06/06 14:45:55;;;;;;;6.72;4.03;;;;;;;;;;5027616;28;20049;-59
2022/06/06 14:48:32;;;;;;;10.68;4.30;;;;;;;;;;5027684;28;20087;-59
2022/06/06 14:50:59;;;;;;;18.27;4.70;;;;;;;;;;5012350;28;20085;-59
2022/06/06 14:53:26;;;;;;;9.02;4.95;;;;;;;;;;5027490;28;20079;-59
2022/06/06 14:55:54;;;;;;;7.72;5.38;;;;;;;;;;5015622;28;20080;-59
2022/06/06 14:58:23;;;;;;;9.05;4.85;;;;;;;;;;5009435;28;20434;-59
2022/06/06 15:00:51;;;;;;;9.57;4.30;;;;;;;;;;5026354;28;20084;-59
2022/06/06 15:03:17;;;;;;;13.02;5.07;;;;;;;;;;5027198;28;20042;-59
2022/06/06 15:05:44;;;;;;;11.65;4.63;;;;;;;;;;5028860;28;20065;-60
2022/06/06 15:08:16;;;;;;;8.38;4.50;;;;;;;;;;5032717;28;20037;-59
2022/06/06 15:10:55;;;;;;;6.07;4.13;;;;;;;;;;5024637;28;20042;-59
2022/06/06 15:13:22;;;;;;;4.70;2.88;;;;;;;;;;5024252;28;20056;-59
2022/06/06 15:15:52;;;;;;;4.35;2.15;;;;;;;;;;5016106;28;20507;-59
2022/06/06 15:18:22;;;;;;;5.38;2.15;;;;;;;;;;5022097;28;20038;-60
2022/06/06 15:20:52;;;;;;;4.75;2.00;;;;;;;;;;5026240;28;20132;-59
2022/06/06 15:23:22;;;;;;;7.25;2.13;;;;;;;;;;5025217;28;20056;-59
2022/06/06 15:25:51;;;;;;;3.53;1.30;;;;;;;;;;5024593;28;20041;-59
2022/06/06 15:28:23;;;;;;;3.90;0.70;;;;;;;;;;5018831;28;20033;-60
2022/06/06 15:30:53;;;;;;;4.05;0.82;;;;;;;;;;5023222;28;20045;-59
2022/06/06 15:33:26;;;;;;;3.08;0.60;;;;;;;;;;5024677;28;20033;-60